createdAt,value
2017-10-06T00:00:06.437Z,2.27
2017-10-06T00:02:33.938Z,1.77
2017-10-06T00:05:01.409Z,1.90
2017-10-06T00:07:28.872Z,1.20
2017-10-06T00:09:56.428Z,1.87
2017-10-06T00:12:23.973Z,2.10
2017-10-06T00:14:51.704Z,1.30
2017-10-06T00:17:19.158Z,1.63
2017-10-06T00:19:46.651Z,1.70
2017-10-06T00:22:14.134Z,1.80
2017-10-06T00:24:41.677Z,2.40
2017-10-06T00:27:09.143Z,1.80
2017-10-06T00:29:36.685Z,1.70
2017-10-06T00:32:04.450Z,1.40
2017-10-06T00:34:31.902Z,1.90
2017-10-06T00:36:59.463Z,1.97
2017-10-06T00:39:26.967Z,1.10
2017-10-06T00:41:54.444Z,1.90
2017-10-06T00:44:21.931Z,1.60
2017-10-06T00:46:49.385Z,1.10
2017-10-06T00:49:16.875Z,1.80
2017-10-06T00:51:44.419Z,1.70
2017-10-06T00:54:11.893Z,1.62
2017-10-06T00:56:39.390Z,1.80
2017-10-06T00:59:06.846Z,1.73
2017-10-06T01:01:34.309Z,1.60
2017-10-06T01:04:01.797Z,1.60
2017-10-06T01:06:29.252Z,1.70
2017-10-06T01:08:56.819Z,1.55
2017-10-06T01:11:24.313Z,1.90
2017-10-06T01:13:51.779Z,1.50
2017-10-06T01:16:19.247Z,1.52
2017-10-06T01:18:46.722Z,1.50
2017-10-06T01:21:14.189Z,1.70
2017-10-06T01:23:41.761Z,1.70
2017-10-06T01:26:09.226Z,1.77
2017-10-06T01:28:36.754Z,1.80
2017-10-06T01:31:04.238Z,2.50
2017-10-06T01:33:31.719Z,1.63
2017-10-06T01:35:59.566Z,1.70
2017-10-06T01:38:27.013Z,1.47
2017-10-06T01:40:54.473Z,1.20
2017-10-06T01:43:21.935Z,1.70
2017-10-06T01:45:49.386Z,1.80
2017-10-06T01:48:16.876Z,1.60
2017-10-06T01:50:44.342Z,1.85
2017-10-06T01:53:12.178Z,2.00
2017-10-06T01:55:39.649Z,1.70
2017-10-06T01:58:07.127Z,1.85
2017-10-06T02:00:34.600Z,1.67
2017-10-06T02:03:02.062Z,1.83
2017-10-06T02:05:29.541Z,1.85
2017-10-06T02:07:56.999Z,1.83
2017-10-06T02:10:24.539Z,1.73
2017-10-06T02:12:51.992Z,1.95
2017-10-06T02:15:19.494Z,1.80
2017-10-06T02:17:47.051Z,2.03
2017-10-06T02:20:14.617Z,2.00
2017-10-06T02:22:42.091Z,1.50
2017-10-06T02:25:09.552Z,1.92
2017-10-06T02:27:37.056Z,1.60
2017-10-06T02:30:04.524Z,1.65
2017-10-06T02:32:32.278Z,1.90
2017-10-06T02:34:59.739Z,1.93
2017-10-06T02:37:27.199Z,1.90
2017-10-06T02:39:54.678Z,1.45
2017-10-06T02:42:22.141Z,1.60
2017-10-06T02:44:49.637Z,1.75
2017-10-06T02:47:17.098Z,2.72
2017-10-06T02:49:44.555Z,1.90
2017-10-06T02:52:12.023Z,2.35
2017-10-06T02:54:39.488Z,2.40
2017-10-06T02:57:06.988Z,2.00
2017-10-06T02:59:34.439Z,2.53
2017-10-06T03:02:01.942Z,1.90
2017-10-06T03:04:29.476Z,2.35
2017-10-06T03:06:56.920Z,2.37
2017-10-06T03:09:24.466Z,2.28
2017-10-06T03:11:51.923Z,2.23
2017-10-06T03:14:19.383Z,1.90
2017-10-06T03:16:46.873Z,2.20
2017-10-06T03:19:14.321Z,2.00
2017-10-06T03:21:41.802Z,1.92
2017-10-06T03:24:09.256Z,2.45
2017-10-06T03:26:37.082Z,2.13
2017-10-06T03:29:04.543Z,1.80
2017-10-06T03:31:32.030Z,2.05
2017-10-06T03:33:59.533Z,2.75
2017-10-06T03:36:27.014Z,2.22
2017-10-06T03:38:54.771Z,2.10
2017-10-06T03:41:22.336Z,1.90
2017-10-06T03:43:49.790Z,2.03
2017-10-06T03:46:17.273Z,2.22
2017-10-06T03:48:44.739Z,2.20
2017-10-06T03:51:12.218Z,1.85
2017-10-06T03:53:39.669Z,1.92
2017-10-06T03:56:07.154Z,2.07
2017-10-06T03:58:34.599Z,2.10
2017-10-06T04:01:02.067Z,2.20
2017-10-06T04:03:29.537Z,1.90
2017-10-06T04:05:57.027Z,2.60
2017-10-06T04:08:24.553Z,2.17
2017-10-06T04:10:52.018Z,2.05
2017-10-06T04:13:19.782Z,1.50
2017-10-06T04:15:47.253Z,1.75
2017-10-06T04:18:14.715Z,1.98
2017-10-06T04:20:42.185Z,2.28
2017-10-06T04:23:09.643Z,1.80
2017-10-06T04:25:37.128Z,2.85
2017-10-06T04:28:04.585Z,1.80
2017-10-06T04:30:32.330Z,2.03
2017-10-06T04:32:59.860Z,1.83
2017-10-06T04:35:27.325Z,1.55
2017-10-06T04:37:54.889Z,2.10
2017-10-06T04:40:22.388Z,3.17
2017-10-06T04:42:49.860Z,2.03
2017-10-06T04:45:17.309Z,1.80
2017-10-06T04:47:44.819Z,2.17
2017-10-06T04:50:12.299Z,2.10
2017-10-06T04:52:39.763Z,2.22
2017-10-06T04:55:07.298Z,2.15
2017-10-06T04:57:34.799Z,1.90
2017-10-06T05:00:02.268Z,1.90
2017-10-06T05:02:29.758Z,2.30
2017-10-06T05:04:57.510Z,2.00
2017-10-06T05:07:24.993Z,2.47
2017-10-06T05:09:52.458Z,2.55
2017-10-06T05:12:19.961Z,2.62
2017-10-06T05:14:47.425Z,2.05
2017-10-06T05:17:14.903Z,2.28
2017-10-06T05:19:42.362Z,1.90
2017-10-06T05:22:10.131Z,2.25
2017-10-06T05:24:37.589Z,1.87
2017-10-06T05:27:05.049Z,2.37
2017-10-06T05:29:32.538Z,1.62
2017-10-06T05:32:00.003Z,2.20
2017-10-06T05:34:27.475Z,2.30
2017-10-06T05:36:55.729Z,2.60
2017-10-06T05:39:23.245Z,2.50
2017-10-06T05:41:50.706Z,2.20
2017-10-06T05:44:18.512Z,2.10
2017-10-06T05:46:46.020Z,2.10
2017-10-06T05:49:13.610Z,2.60
2017-10-06T05:51:51.042Z,2.10
2017-10-06T05:54:18.496Z,2.60
2017-10-06T05:56:45.994Z,2.78
2017-10-06T05:59:13.503Z,2.67
2017-10-06T06:01:41.010Z,2.53
2017-10-06T06:04:08.779Z,1.90
2017-10-06T06:06:36.297Z,2.35
2017-10-06T06:09:03.786Z,2.30
2017-10-06T06:11:31.633Z,3.37
2017-10-06T06:13:59.096Z,2.78
2017-10-06T06:16:26.620Z,2.20
2017-10-06T06:18:54.110Z,2.20
2017-10-06T06:21:21.578Z,2.60
2017-10-06T06:23:49.046Z,2.10
2017-10-06T06:26:16.523Z,2.95
2017-10-06T06:28:44.108Z,2.35
2017-10-06T06:31:11.620Z,3.22
2017-10-06T06:33:39.110Z,2.25
2017-10-06T06:36:06.592Z,2.15
2017-10-06T06:38:34.056Z,2.28
2017-10-06T06:41:01.554Z,3.00
2017-10-06T06:43:29.050Z,2.50
2017-10-06T06:45:56.865Z,2.58
2017-10-06T06:48:24.336Z,2.40
2017-10-06T06:50:51.823Z,2.30
2017-10-06T06:53:19.303Z,3.40
2017-10-06T06:55:46.923Z,2.95
2017-10-06T06:58:14.801Z,2.65
2017-10-06T07:00:42.284Z,2.80
2017-10-06T07:03:09.777Z,2.63
2017-10-06T07:05:37.249Z,2.90
2017-10-06T07:08:04.736Z,2.40
2017-10-06T07:10:32.207Z,2.60
2017-10-06T07:12:59.687Z,3.90
2017-10-06T07:15:27.174Z,2.90
2017-10-06T07:17:54.646Z,2.85
2017-10-06T07:20:22.194Z,3.30
2017-10-06T07:22:49.849Z,3.53
2017-10-06T07:25:17.330Z,2.70
2017-10-06T07:27:44.836Z,2.73
2017-10-06T07:30:12.325Z,3.60
2017-10-06T07:32:40.092Z,3.63
2017-10-06T07:35:07.561Z,4.60
2017-10-06T07:37:35.032Z,3.37
2017-10-06T07:40:02.523Z,3.83
2017-10-06T07:42:30.024Z,4.12
2017-10-06T07:44:57.543Z,3.10
2017-10-06T07:47:25.063Z,2.90
2017-10-06T07:49:52.524Z,2.87
2017-10-06T07:52:20.084Z,3.00
2017-10-06T07:54:47.539Z,2.50
2017-10-06T07:57:15.015Z,2.93
2017-10-06T07:59:42.527Z,3.40
2017-10-06T08:02:10.141Z,2.73
2017-10-06T08:04:37.606Z,3.03
2017-10-06T08:07:05.067Z,2.60
2017-10-06T08:09:32.547Z,2.30
2017-10-06T08:12:00.114Z,2.57
2017-10-06T08:14:27.635Z,2.50
2017-10-06T08:16:55.164Z,3.00
2017-10-06T08:19:22.625Z,2.37
2017-10-06T08:21:50.164Z,2.57
2017-10-06T08:24:17.681Z,2.90
2017-10-06T08:26:45.207Z,3.00
2017-10-06T08:29:12.677Z,3.23
2017-10-06T08:31:40.509Z,3.33
2017-10-06T08:34:08.129Z,3.40
2017-10-06T08:36:35.594Z,3.20
2017-10-06T08:39:03.109Z,2.93
2017-10-06T08:41:30.931Z,3.23
2017-10-06T08:43:58.481Z,4.23
2017-10-06T08:46:26.105Z,3.03
2017-10-06T08:48:53.582Z,4.00
2017-10-06T08:51:21.063Z,3.03
2017-10-06T08:53:48.539Z,3.00
2017-10-06T08:56:16.137Z,2.70
2017-10-06T08:58:43.639Z,2.70
2017-10-06T09:01:11.248Z,3.00
2017-10-06T09:03:38.715Z,2.47
2017-10-06T09:06:06.545Z,2.93
2017-10-06T09:08:34.016Z,2.33
2017-10-06T09:11:01.512Z,3.30
2017-10-06T09:13:29.138Z,4.00
2017-10-06T09:15:56.826Z,2.57
2017-10-06T09:18:24.349Z,2.43
2017-10-06T09:20:51.809Z,2.83
2017-10-06T09:23:19.273Z,2.50
2017-10-06T09:25:46.754Z,4.00
2017-10-06T09:28:14.297Z,2.30
2017-10-06T09:30:41.826Z,2.07
2017-10-06T09:33:09.300Z,2.03
2017-10-06T09:35:36.771Z,3.07
2017-10-06T09:38:04.350Z,2.43
2017-10-06T09:40:31.890Z,2.53
2017-10-06T09:42:59.373Z,2.50
2017-10-06T09:45:26.833Z,2.13
2017-10-06T09:47:54.289Z,2.40
2017-10-06T09:50:21.843Z,3.07
2017-10-06T09:52:49.316Z,2.67
2017-10-06T09:55:16.775Z,2.50
2017-10-06T09:57:44.236Z,2.03
2017-10-06T10:00:11.732Z,2.67
2017-10-06T10:02:39.192Z,2.53
2017-10-06T10:05:06.677Z,2.33
2017-10-06T10:07:34.171Z,2.27
2017-10-06T10:10:01.633Z,2.50
2017-10-06T10:12:29.121Z,2.20
2017-10-06T10:14:56.605Z,3.17
2017-10-06T10:17:24.103Z,2.53
2017-10-06T10:19:51.558Z,2.13
2017-10-06T10:22:19.022Z,2.23
2017-10-06T10:24:46.512Z,2.07
2017-10-06T10:27:13.999Z,2.10
2017-10-06T10:29:41.493Z,2.03
2017-10-06T10:32:09.045Z,1.83
2017-10-06T10:34:36.525Z,1.60
2017-10-06T10:37:03.337Z,1.70
2017-10-06T10:39:30.840Z,1.57
2017-10-06T10:41:58.395Z,1.00
2017-10-06T10:44:25.865Z,1.30
2017-10-06T10:46:53.552Z,1.20
2017-10-06T10:49:21.013Z,1.17
2017-10-06T10:51:48.476Z,1.20
2017-10-06T10:54:16.215Z,1.17
2017-10-06T10:56:43.692Z,1.80
2017-10-06T10:59:11.177Z,1.13
2017-10-06T11:01:38.660Z,1.40
2017-10-06T11:04:06.139Z,1.00
2017-10-06T11:06:33.626Z,1.23
2017-10-06T11:09:01.088Z,1.30
2017-10-06T11:11:28.578Z,1.10
2017-10-06T11:13:56.087Z,1.50
2017-10-06T11:16:23.587Z,1.40
2017-10-06T11:18:51.059Z,1.57
2017-10-06T11:21:18.596Z,1.17
2017-10-06T11:23:46.082Z,1.70
2017-10-06T11:26:13.551Z,1.23
2017-10-06T11:28:41.092Z,1.60
2017-10-06T11:31:08.656Z,1.33
2017-10-06T11:33:36.142Z,1.10
2017-10-06T11:36:03.638Z,1.20
2017-10-06T11:38:31.138Z,1.00
2017-10-06T11:40:58.631Z,1.10
2017-10-06T11:43:26.096Z,1.20
2017-10-06T11:45:53.600Z,1.20
2017-10-06T11:48:21.079Z,1.10
2017-10-06T11:50:48.611Z,1.10
2017-10-06T11:53:16.093Z,1.30
2017-10-06T11:55:43.563Z,1.30
2017-10-06T11:58:11.044Z,1.40
2017-10-06T12:00:38.539Z,1.03
2017-10-06T12:03:06.034Z,1.33
2017-10-06T12:05:33.545Z,1.43
2017-10-06T12:08:01.032Z,1.23
2017-10-06T12:10:28.594Z,1.30
2017-10-06T12:12:56.065Z,1.30
2017-10-06T12:15:23.582Z,1.10
2017-10-06T12:17:51.101Z,1.67
2017-10-06T12:20:18.575Z,1.57
2017-10-06T12:22:46.087Z,1.77
2017-10-06T12:25:13.556Z,1.20
2017-10-06T12:27:41.019Z,1.37
2017-10-06T12:30:08.505Z,1.30
2017-10-06T12:32:35.993Z,1.30
2017-10-06T12:35:03.483Z,1.97
2017-10-06T12:37:30.938Z,1.23
2017-10-06T12:39:58.568Z,1.30
2017-10-06T12:42:26.048Z,1.73
2017-10-06T12:44:53.575Z,1.30
2017-10-06T12:47:21.358Z,1.33
2017-10-06T12:49:48.862Z,1.30
2017-10-06T12:52:16.337Z,1.03
2017-10-06T12:54:43.799Z,1.33
2017-10-06T12:57:11.257Z,1.20
2017-10-06T12:59:39.092Z,0.90
2017-10-06T13:02:06.583Z,1.00
2017-10-06T13:04:34.074Z,1.10
2017-10-06T13:07:01.549Z,1.20
2017-10-06T13:09:29.017Z,0.90
2017-10-06T13:11:56.558Z,0.97
2017-10-06T13:14:24.038Z,0.90
2017-10-06T13:16:51.542Z,1.10
2017-10-06T13:19:19.050Z,1.27
2017-10-06T13:21:46.514Z,1.20
2017-10-06T13:24:13.993Z,1.10
2017-10-06T13:26:41.503Z,1.30
2017-10-06T13:29:09.074Z,0.87
2017-10-06T13:31:36.626Z,1.40
2017-10-06T13:34:04.141Z,1.37
2017-10-06T13:36:31.624Z,1.20
2017-10-06T13:38:59.070Z,1.20
2017-10-06T13:41:26.557Z,1.37
2017-10-06T13:43:54.027Z,0.83
2017-10-06T13:46:21.536Z,1.10
2017-10-06T13:48:49.000Z,1.10
2017-10-06T13:51:16.577Z,1.10
2017-10-06T13:53:44.060Z,1.23
2017-10-06T13:56:11.533Z,1.30
2017-10-06T13:58:39.036Z,1.30
2017-10-06T14:01:06.535Z,1.27
2017-10-06T14:03:34.068Z,1.17
2017-10-06T14:06:01.541Z,1.13
2017-10-06T14:08:29.028Z,1.20
2017-10-06T14:10:56.577Z,1.60
2017-10-06T14:13:24.083Z,1.20
2017-10-06T14:15:51.623Z,1.50
2017-10-06T14:18:19.092Z,1.40
2017-10-06T14:20:46.843Z,1.70
2017-10-06T14:23:14.381Z,1.40
2017-10-06T14:25:41.894Z,1.10
2017-10-06T14:28:21.081Z,1.40
2017-10-06T14:30:49.245Z,1.17
2017-10-06T14:33:16.743Z,1.20
2017-10-06T14:35:44.211Z,1.53
2017-10-06T14:38:11.788Z,1.40
2017-10-06T14:40:39.311Z,0.90
2017-10-06T14:43:07.420Z,1.10
2017-10-06T14:45:34.901Z,1.17
2017-10-06T14:48:02.356Z,1.57
2017-10-06T14:50:29.876Z,0.93
2017-10-06T14:52:57.355Z,1.20
2017-10-06T14:55:24.925Z,1.00
2017-10-06T14:57:52.414Z,1.10
2017-10-06T15:00:19.875Z,1.07
2017-10-06T15:02:47.426Z,1.10
2017-10-06T15:05:14.956Z,1.13
2017-10-06T15:07:42.424Z,1.33
2017-10-06T15:10:10.030Z,1.53
2017-10-06T15:12:37.517Z,1.80
2017-10-06T15:15:06.015Z,1.37
2017-10-06T15:17:33.510Z,1.50
2017-10-06T15:20:01.044Z,1.20
2017-10-06T15:22:34.615Z,1.50
2017-10-06T15:25:03.637Z,1.13
2017-10-06T15:27:31.115Z,1.10
2017-10-06T15:29:58.597Z,1.33
2017-10-06T15:32:26.069Z,1.07
2017-10-06T15:34:53.645Z,1.33
2017-10-06T15:37:21.133Z,1.37
2017-10-06T15:39:48.610Z,1.53
2017-10-06T15:42:16.104Z,2.10
2017-10-06T15:44:43.631Z,1.30
2017-10-06T15:47:11.104Z,1.60
2017-10-06T15:49:38.568Z,1.30
2017-10-06T15:52:06.028Z,1.30
2017-10-06T15:54:33.521Z,1.37
2017-10-06T15:57:00.986Z,1.20
2017-10-06T15:59:28.502Z,1.10
2017-10-06T16:01:56.043Z,1.20
2017-10-06T16:04:23.593Z,1.53
2017-10-06T16:06:51.107Z,1.30
2017-10-06T16:09:18.578Z,1.30
2017-10-06T16:11:46.032Z,1.60
2017-10-06T16:14:13.540Z,1.13
2017-10-06T16:16:41.025Z,1.33
2017-10-06T16:19:08.566Z,1.47
2017-10-06T16:21:36.146Z,1.23
2017-10-06T16:24:03.628Z,1.50
2017-10-06T16:26:31.182Z,1.20
2017-10-06T16:28:58.681Z,1.90
2017-10-06T16:31:26.182Z,1.50
2017-10-06T16:33:57.743Z,1.33
2017-10-06T16:36:25.274Z,1.10
2017-10-06T16:38:52.751Z,1.40
2017-10-06T16:41:20.318Z,1.20
2017-10-06T16:43:47.872Z,1.20
2017-10-06T16:46:15.338Z,1.20
2017-10-06T16:48:42.826Z,1.63
2017-10-06T16:51:10.302Z,1.30
2017-10-06T16:53:37.776Z,1.87
2017-10-06T16:56:05.290Z,1.20
2017-10-06T16:58:32.770Z,1.37
2017-10-06T17:01:00.239Z,1.33
2017-10-06T17:03:27.750Z,1.47
2017-10-06T17:05:55.251Z,1.20
2017-10-06T17:08:22.776Z,1.30
2017-10-06T17:10:50.246Z,1.20
2017-10-06T17:13:17.726Z,1.10
2017-10-06T17:15:45.182Z,1.20
2017-10-06T17:18:12.649Z,1.10
2017-10-06T17:20:40.167Z,1.30
2017-10-06T17:23:07.640Z,1.43
2017-10-06T17:25:35.118Z,1.43
2017-10-06T17:28:02.579Z,1.57
2017-10-06T17:30:30.061Z,1.20
2017-10-06T17:32:57.626Z,1.27
2017-10-06T17:35:25.123Z,1.23
2017-10-06T17:37:52.631Z,1.20
2017-10-06T17:40:20.252Z,1.13
2017-10-06T17:42:47.774Z,1.87
2017-10-06T17:45:15.263Z,1.40
2017-10-06T17:47:42.763Z,1.50
2017-10-06T17:50:10.236Z,1.47
2017-10-06T17:52:37.720Z,1.50
2017-10-06T17:55:05.298Z,1.90
2017-10-06T17:57:32.776Z,1.70
2017-10-06T18:00:00.243Z,1.40
2017-10-06T18:02:27.713Z,1.20
2017-10-06T18:04:55.182Z,1.63
2017-10-06T18:07:22.749Z,1.80
2017-10-06T18:09:50.228Z,1.40
2017-10-06T18:12:17.721Z,1.40
2017-10-06T18:14:45.240Z,1.77
2017-10-06T18:17:12.716Z,1.30
2017-10-06T18:19:40.203Z,1.63
2017-10-06T18:22:08.642Z,1.67
2017-10-06T18:24:36.113Z,1.83
2017-10-06T18:27:03.623Z,1.40
2017-10-06T18:29:31.191Z,1.30
2017-10-06T18:31:58.700Z,1.43
2017-10-06T18:34:26.283Z,1.67
2017-10-06T18:36:53.860Z,1.37
2017-10-06T18:39:21.643Z,1.63
2017-10-06T18:41:49.218Z,1.50
2017-10-06T18:44:16.754Z,1.40
2017-10-06T18:46:44.260Z,1.30
2017-10-06T18:49:11.740Z,1.20
2017-10-06T18:51:39.252Z,1.30
2017-10-06T18:54:06.710Z,1.40
2017-10-06T18:56:34.310Z,1.30
2017-10-06T18:59:01.828Z,1.90
2017-10-06T19:01:29.314Z,1.30
2017-10-06T19:03:56.853Z,1.17
2017-10-06T19:06:24.324Z,1.60
2017-10-06T19:08:51.874Z,1.43
2017-10-06T19:11:19.387Z,1.27
2017-10-06T19:13:46.851Z,1.50
2017-10-06T19:16:14.408Z,2.40
2017-10-06T19:18:41.927Z,1.73
2017-10-06T19:21:09.432Z,1.30
2017-10-06T19:23:37.025Z,1.50
2017-10-06T19:26:04.511Z,1.30
2017-10-06T19:28:31.997Z,1.50
2017-10-06T19:30:59.574Z,2.17
2017-10-06T19:33:27.130Z,1.60
2017-10-06T19:35:54.598Z,1.60
2017-10-06T19:38:22.176Z,2.13
2017-10-06T19:40:49.721Z,1.90
2017-10-06T19:43:17.206Z,1.80
2017-10-06T19:45:44.682Z,1.67
2017-10-06T19:48:12.144Z,3.67
2017-10-06T19:50:39.624Z,2.30
2017-10-06T19:53:07.100Z,1.87
2017-10-06T19:55:34.696Z,1.50
2017-10-06T20:05:41.428Z,1.90
2017-10-06T20:08:08.972Z,2.13
2017-10-06T20:10:36.458Z,2.07
2017-10-06T20:25:50.238Z,1.90
2017-10-06T20:33:24.047Z,2.50
2017-10-06T20:35:51.503Z,2.60
2017-10-06T20:38:18.995Z,2.80
2017-10-06T20:56:03.525Z,2.73
2017-10-06T21:01:04.036Z,3.50
2017-10-06T21:06:04.515Z,3.07
2017-10-06T21:13:37.995Z,2.77
2017-10-06T21:16:07.257Z,2.53
2017-10-06T21:21:07.899Z,2.77
2017-10-06T21:26:09.642Z,3.90
2017-10-06T21:33:42.913Z,3.03
2017-10-06T21:38:43.315Z,3.37
2017-10-06T21:41:10.806Z,3.70
2017-10-06T21:43:38.279Z,3.30
2017-10-06T21:46:05.852Z,3.50
2017-10-06T21:53:38.939Z,2.67
2017-10-06T21:56:06.420Z,3.13
2017-10-06T21:58:33.958Z,3.80
2017-10-06T22:01:01.461Z,2.90
2017-10-06T22:06:01.833Z,2.23
2017-10-06T22:08:29.611Z,2.83
2017-10-06T22:33:56.406Z,3.20
2017-10-06T22:38:57.159Z,4.00
2017-10-06T22:54:10.381Z,3.50
2017-10-06T22:56:37.849Z,3.40
2017-10-06T23:01:38.038Z,2.60
2017-10-06T23:04:05.498Z,2.27
2017-10-06T23:06:33.097Z,3.30
2017-10-06T23:11:33.422Z,2.13
2017-10-06T23:14:00.928Z,2.70
2017-10-06T23:21:34.214Z,1.97
2017-10-06T23:34:15.750Z,2.37
2017-10-06T23:36:43.240Z,2.50
2017-10-06T23:39:10.756Z,2.50
2017-10-06T23:49:16.594Z,2.53
2017-10-06T23:51:44.467Z,2.43
